sensor_id;sensor_type;location;lat;lon;timestamp;P1;durP1;ratioP1;P2;durP2;ratioP2
52035;SDS011;38046;49.448;32.074;2022-07-30T00:01:58;3.28;;;2.85;;
52035;SDS011;38046;49.448;32.074;2022-07-30T00:04:24;3.88;;;2.65;;
52035;SDS011;38046;49.448;32.074;2022-07-30T00:06:50;3.58;;;2.83;;
52035;SDS011;38046;49.448;32.074;2022-07-30T00:09:15;4.85;;;2.92;;
52035;SDS011;38046;49.448;32.074;2022-07-30T00:11:41;2.80;;;2.50;;
52035;SDS011;38046;49.448;32.074;2022-07-30T00:14:07;3.55;;;2.90;;
52035;SDS011;38046;49.448;32.074;2022-07-30T00:16:32;3.05;;;2.75;;
52035;SDS011;38046;49.448;32.074;2022-07-30T00:18:58;4.15;;;3.28;;
52035;SDS011;38046;49.448;32.074;2022-07-30T00:21:24;2.58;;;2.30;;
52035;SDS011;38046;49.448;32.074;2022-07-30T00:23:49;4.50;;;2.90;;
52035;SDS011;38046;49.448;32.074;2022-07-30T00:26:15;2.70;;;2.50;;
52035;SDS011;38046;49.448;32.074;2022-07-30T00:28:40;5.55;;;2.83;;
52035;SDS011;38046;49.448;32.074;2022-07-30T00:31:06;3.17;;;2.63;;
52035;SDS011;38046;49.448;32.074;2022-07-30T00:33:32;3.38;;;2.80;;
52035;SDS011;38046;49.448;32.074;2022-07-30T00:35:57;3.30;;;2.90;;
52035;SDS011;38046;49.448;32.074;2022-07-30T00:38:23;2.70;;;2.50;;
52035;SDS011;38046;49.448;32.074;2022-07-30T00:40:49;5.45;;;2.50;;
52035;SDS011;38046;49.448;32.074;2022-07-30T00:43:15;2.88;;;2.38;;
52035;SDS011;38046;49.448;32.074;2022-07-30T00:45:41;2.95;;;2.55;;
52035;SDS011;38046;49.448;32.074;2022-07-30T00:48:07;2.78;;;2.35;;
52035;SDS011;38046;49.448;32.074;2022-07-30T00:50:35;2.78;;;2.47;;
52035;SDS011;38046;49.448;32.074;2022-07-30T00:53:01;3.50;;;2.70;;
52035;SDS011;38046;49.448;32.074;2022-07-30T00:55:27;3.55;;;2.75;;
52035;SDS011;38046;49.448;32.074;2022-07-30T00:57:53;3.10;;;2.80;;
52035;SDS011;38046;49.448;32.074;2022-07-30T01:00:19;3.65;;;2.65;;
52035;SDS011;38046;49.448;32.074;2022-07-30T01:02:44;3.00;;;2.70;;
52035;SDS011;38046;49.448;32.074;2022-07-30T01:05:10;5.07;;;3.08;;
52035;SDS011;38046;49.448;32.074;2022-07-30T01:07:36;2.70;;;2.45;;
52035;SDS011;38046;49.448;32.074;2022-07-30T01:10:03;4.85;;;3.10;;
52035;SDS011;38046;49.448;32.074;2022-07-30T01:12:30;3.80;;;3.00;;
52035;SDS011;38046;49.448;32.074;2022-07-30T01:14:57;3.00;;;2.70;;
52035;SDS011;38046;49.448;32.074;2022-07-30T01:17:24;3.20;;;2.90;;
52035;SDS011;38046;49.448;32.074;2022-07-30T01:19:50;4.03;;;2.90;;
52035;SDS011;38046;49.448;32.074;2022-07-30T01:27:54;3.90;;;2.97;;
52035;SDS011;38046;49.448;32.074;2022-07-30T01:30:24;2.80;;;2.53;;
52035;SDS011;38046;49.448;32.074;2022-07-30T01:32:54;2.33;;;2.13;;
52035;SDS011;38046;49.448;32.074;2022-07-30T01:35:22;3.42;;;2.40;;
52035;SDS011;38046;49.448;32.074;2022-07-30T01:37:50;2.80;;;2.30;;
52035;SDS011;38046;49.448;32.074;2022-07-30T01:40:17;2.35;;;2.15;;
52035;SDS011;38046;49.448;32.074;2022-07-30T01:42:44;2.00;;;1.90;;
52035;SDS011;38046;49.448;32.074;2022-07-30T01:45:13;2.35;;;2.17;;
52035;SDS011;38046;49.448;32.074;2022-07-30T01:47:41;2.75;;;2.47;;
52035;SDS011;38046;49.448;32.074;2022-07-30T01:50:09;2.80;;;2.53;;
52035;SDS011;38046;49.448;32.074;2022-07-30T01:52:40;3.13;;;2.38;;
52035;SDS011;38046;49.448;32.074;2022-07-30T01:55:09;2.05;;;1.90;;
52035;SDS011;38046;49.448;32.074;2022-07-30T01:57:38;2.47;;;2.25;;
52035;SDS011;38046;49.448;32.074;2022-07-30T02:00:04;3.25;;;2.88;;
52035;SDS011;38046;49.448;32.074;2022-07-30T02:02:35;2.65;;;2.45;;
52035;SDS011;38046;49.448;32.074;2022-07-30T02:05:02;3.50;;;2.70;;
52035;SDS011;38046;49.448;32.074;2022-07-30T02:07:31;3.05;;;2.15;;
52035;SDS011;38046;49.448;32.074;2022-07-30T02:10:21;2.63;;;2.38;;
52035;SDS011;38046;49.448;32.074;2022-07-30T02:12:53;2.63;;;2.42;;
52035;SDS011;38046;49.448;32.074;2022-07-30T02:17:53;2.67;;;2.47;;
52035;SDS011;38046;49.448;32.074;2022-07-30T02:20:26;2.65;;;2.45;;
52035;SDS011;38046;49.448;32.074;2022-07-30T02:22:54;2.60;;;2.40;;
52035;SDS011;38046;49.448;32.074;2022-07-30T02:25:23;2.15;;;2.05;;
52035;SDS011;38046;49.448;32.074;2022-07-30T02:27:55;2.70;;;2.45;;
52035;SDS011;38046;49.448;32.074;2022-07-30T02:30:24;3.22;;;2.45;;
52035;SDS011;38046;49.448;32.074;2022-07-30T02:32:54;2.42;;;2.22;;
52035;SDS011;38046;49.448;32.074;2022-07-30T02:35:27;2.80;;;2.60;;
52035;SDS011;38046;49.448;32.074;2022-07-30T02:37:55;2.67;;;2.40;;
52035;SDS011;38046;49.448;32.074;2022-07-30T02:40:23;2.92;;;2.40;;
52035;SDS011;38046;49.448;32.074;2022-07-30T02:42:51;3.97;;;2.97;;
52035;SDS011;38046;49.448;32.074;2022-07-30T02:45:18;3.47;;;2.80;;
52035;SDS011;38046;49.448;32.074;2022-07-30T02:47:45;3.22;;;2.90;;
52035;SDS011;38046;49.448;32.074;2022-07-30T02:50:15;2.67;;;2.47;;
52035;SDS011;38046;49.448;32.074;2022-07-30T02:52:43;2.80;;;2.50;;
52035;SDS011;38046;49.448;32.074;2022-07-30T02:55:09;3.45;;;2.53;;
52035;SDS011;38046;49.448;32.074;2022-07-30T02:57:36;3.67;;;2.75;;
52035;SDS011;38046;49.448;32.074;2022-07-30T03:00:06;3.83;;;2.75;;
52035;SDS011;38046;49.448;32.074;2022-07-30T03:02:32;4.07;;;2.92;;
52035;SDS011;38046;49.448;32.074;2022-07-30T03:05:00;3.30;;;2.80;;
52035;SDS011;38046;49.448;32.074;2022-07-30T03:07:28;2.58;;;2.38;;
52035;SDS011;38046;49.448;32.074;2022-07-30T03:09:54;2.60;;;2.30;;
52035;SDS011;38046;49.448;32.074;2022-07-30T03:12:21;4.47;;;3.08;;
52035;SDS011;38046;49.448;32.074;2022-07-30T03:14:48;2.60;;;2.40;;
52035;SDS011;38046;49.448;32.074;2022-07-30T03:17:14;3.45;;;2.60;;
52035;SDS011;38046;49.448;32.074;2022-07-30T03:19:42;2.67;;;2.47;;
52035;SDS011;38046;49.448;32.074;2022-07-30T03:22:10;2.55;;;2.28;;
52035;SDS011;38046;49.448;32.074;2022-07-30T03:24:38;3.50;;;2.83;;
52035;SDS011;38046;49.448;32.074;2022-07-30T03:27:07;2.72;;;2.53;;
52035;SDS011;38046;49.448;32.074;2022-07-30T03:29:34;2.70;;;2.50;;
52035;SDS011;38046;49.448;32.074;2022-07-30T03:32:03;4.28;;;2.60;;
52035;SDS011;38046;49.448;32.074;2022-07-30T03:34:30;5.78;;;2.88;;
52035;SDS011;38046;49.448;32.074;2022-07-30T03:36:57;3.42;;;2.72;;
52035;SDS011;38046;49.448;32.074;2022-07-30T03:39:24;3.88;;;2.75;;
52035;SDS011;38046;49.448;32.074;2022-07-30T03:41:51;2.70;;;2.50;;
52035;SDS011;38046;49.448;32.074;2022-07-30T03:44:18;3.00;;;2.60;;
52035;SDS011;38046;49.448;32.074;2022-07-30T03:46:45;4.10;;;2.80;;
52035;SDS011;38046;49.448;32.074;2022-07-30T03:49:14;4.90;;;2.50;;
52035;SDS011;38046;49.448;32.074;2022-07-30T03:51:40;2.78;;;2.45;;
52035;SDS011;38046;49.448;32.074;2022-07-30T03:54:07;3.00;;;2.70;;
52035;SDS011;38046;49.448;32.074;2022-07-30T03:56:35;3.38;;;2.80;;
52035;SDS011;38046;49.448;32.074;2022-07-30T03:59:02;3.90;;;2.78;;
52035;SDS011;38046;49.448;32.074;2022-07-30T04:01:28;3.10;;;2.55;;
52035;SDS011;38046;49.448;32.074;2022-07-30T04:03:54;3.05;;;2.30;;
52035;SDS011;38046;49.448;32.074;2022-07-30T04:06:20;2.58;;;2.38;;
52035;SDS011;38046;49.448;32.074;2022-07-30T04:08:45;3.20;;;2.90;;
52035;SDS011;38046;49.448;32.074;2022-07-30T04:11:11;2.50;;;2.30;;
52035;SDS011;38046;49.448;32.074;2022-07-30T04:13:37;3.95;;;2.45;;
52035;SDS011;38046;49.448;32.074;2022-07-30T04:16:38;2.60;;;2.40;;
52035;SDS011;38046;49.448;32.074;2022-07-30T04:18:57;3.10;;;2.30;;
52035;SDS011;38046;49.448;32.074;2022-07-30T04:21:24;2.97;;;2.42;;
52035;SDS011;38046;49.448;32.074;2022-07-30T04:23:51;3.28;;;2.60;;
52035;SDS011;38046;49.448;32.074;2022-07-30T04:26:17;2.60;;;2.40;;
52035;SDS011;38046;49.448;32.074;2022-07-30T04:28:44;3.25;;;2.90;;
52035;SDS011;38046;49.448;32.074;2022-07-30T04:31:10;2.78;;;2.25;;
52035;SDS011;38046;49.448;32.074;2022-07-30T04:33:36;3.38;;;2.83;;
52035;SDS011;38046;49.448;32.074;2022-07-30T04:36:05;2.30;;;2.10;;
52035;SDS011;38046;49.448;32.074;2022-07-30T04:40:57;2.85;;;2.20;;
52035;SDS011;38046;49.448;32.074;2022-07-30T04:43:23;2.20;;;2.10;;
52035;SDS011;38046;49.448;32.074;2022-07-30T04:45:48;4.25;;;2.35;;
52035;SDS011;38046;49.448;32.074;2022-07-30T04:48:14;2.10;;;1.90;;
52035;SDS011;38046;49.448;32.074;2022-07-30T04:50:41;2.20;;;2.00;;
52035;SDS011;38046;49.448;32.074;2022-07-30T04:53:09;2.00;;;1.90;;
52035;SDS011;38046;49.448;32.074;2022-07-30T04:55:36;1.65;;;1.58;;
52035;SDS011;38046;49.448;32.074;2022-07-30T04:58:06;1.90;;;1.80;;
52035;SDS011;38046;49.448;32.074;2022-07-30T05:00:34;1.80;;;1.70;;
52035;SDS011;38046;49.448;32.074;2022-07-30T05:03:01;2.25;;;2.05;;
52035;SDS011;38046;49.448;32.074;2022-07-30T05:05:29;2.05;;;1.85;;
52035;SDS011;38046;49.448;32.074;2022-07-30T05:07:56;1.98;;;1.85;;
52035;SDS011;38046;49.448;32.074;2022-07-30T05:10:23;1.90;;;1.70;;
52035;SDS011;38046;49.448;32.074;2022-07-30T05:12:49;2.03;;;1.77;;
52035;SDS011;38046;49.448;32.074;2022-07-30T05:15:15;2.28;;;1.98;;
52035;SDS011;38046;49.448;32.074;2022-07-30T05:17:41;2.30;;;2.10;;
52035;SDS011;38046;49.448;32.074;2022-07-30T05:20:07;2.45;;;1.90;;
52035;SDS011;38046;49.448;32.074;2022-07-30T05:22:33;1.88;;;1.77;;
52035;SDS011;38046;49.448;32.074;2022-07-30T05:24:59;2.58;;;2.08;;
52035;SDS011;38046;49.448;32.074;2022-07-30T05:27:24;2.35;;;2.20;;
52035;SDS011;38046;49.448;32.074;2022-07-30T05:29:50;2.17;;;1.75;;
52035;SDS011;38046;49.448;32.074;2022-07-30T05:32:16;1.77;;;1.67;;
52035;SDS011;38046;49.448;32.074;2022-07-30T05:34:41;2.28;;;2.03;;
52035;SDS011;38046;49.448;32.074;2022-07-30T05:37:07;2.05;;;1.70;;
52035;SDS011;38046;49.448;32.074;2022-07-30T05:39:33;2.30;;;2.10;;
52035;SDS011;38046;49.448;32.074;2022-07-30T05:41:58;2.33;;;2.13;;
52035;SDS011;38046;49.448;32.074;2022-07-30T05:44:24;2.40;;;2.22;;
52035;SDS011;38046;49.448;32.074;2022-07-30T05:46:50;2.45;;;2.25;;
52035;SDS011;38046;49.448;32.074;2022-07-30T05:49:16;2.60;;;2.40;;
52035;SDS011;38046;49.448;32.074;2022-07-30T05:51:42;2.42;;;2.22;;
52035;SDS011;38046;49.448;32.074;2022-07-30T05:54:07;2.40;;;2.20;;
52035;SDS011;38046;49.448;32.074;2022-07-30T05:56:33;3.75;;;2.22;;
52035;SDS011;38046;49.448;32.074;2022-07-30T05:59:00;2.45;;;2.25;;
52035;SDS011;38046;49.448;32.074;2022-07-30T06:01:26;4.93;;;2.42;;
52035;SDS011;38046;49.448;32.074;2022-07-30T06:03:51;2.58;;;2.38;;
52035;SDS011;38046;49.448;32.074;2022-07-30T06:06:17;3.65;;;2.63;;
52035;SDS011;38046;49.448;32.074;2022-07-30T06:08:43;3.15;;;2.50;;
52035;SDS011;38046;49.448;32.074;2022-07-30T06:11:08;3.05;;;2.50;;
52035;SDS011;38046;49.448;32.074;2022-07-30T06:13:34;2.97;;;2.22;;
52035;SDS011;38046;49.448;32.074;2022-07-30T06:16:00;2.88;;;2.65;;
52035;SDS011;38046;49.448;32.074;2022-07-30T06:18:26;2.50;;;2.30;;
52035;SDS011;38046;49.448;32.074;2022-07-30T06:20:52;3.17;;;2.88;;
52035;SDS011;38046;49.448;32.074;2022-07-30T06:23:19;2.90;;;2.67;;
52035;SDS011;38046;49.448;32.074;2022-07-30T06:25:46;3.15;;;2.78;;
52035;SDS011;38046;49.448;32.074;2022-07-30T06:28:12;2.75;;;2.50;;
52035;SDS011;38046;49.448;32.074;2022-07-30T06:30:38;2.70;;;2.50;;
52035;SDS011;38046;49.448;32.074;2022-07-30T06:33:04;4.18;;;2.85;;
52035;SDS011;38046;49.448;32.074;2022-07-30T06:35:30;3.78;;;3.03;;
52035;SDS011;38046;49.448;32.074;2022-07-30T06:37:58;2.65;;;2.45;;
52035;SDS011;38046;49.448;32.074;2022-07-30T06:40:24;3.70;;;2.67;;
52035;SDS011;38046;49.448;32.074;2022-07-30T06:42:50;2.85;;;2.65;;
52035;SDS011;38046;49.448;32.074;2022-07-30T06:45:15;2.92;;;2.60;;
52035;SDS011;38046;49.448;32.074;2022-07-30T06:47:41;2.30;;;2.20;;
52035;SDS011;38046;49.448;32.074;2022-07-30T06:50:08;2.15;;;2.00;;
52035;SDS011;38046;49.448;32.074;2022-07-30T06:52:34;2.50;;;2.30;;
52035;SDS011;38046;49.448;32.074;2022-07-30T06:54:59;2.50;;;2.30;;
52035;SDS011;38046;49.448;32.074;2022-07-30T06:57:25;3.58;;;2.70;;
52035;SDS011;38046;49.448;32.074;2022-07-30T06:59:51;2.13;;;1.88;;
52035;SDS011;38046;49.448;32.074;2022-07-30T07:02:17;3.42;;;2.40;;
52035;SDS011;38046;49.448;32.074;2022-07-30T07:04:42;2.97;;;2.63;;
52035;SDS011;38046;49.448;32.074;2022-07-30T07:07:08;2.70;;;2.50;;
52035;SDS011;38046;49.448;32.074;2022-07-30T07:09:34;2.53;;;2.30;;
52035;SDS011;38046;49.448;32.074;2022-07-30T07:12:00;2.58;;;2.38;;
52035;SDS011;38046;49.448;32.074;2022-07-30T07:14:26;2.33;;;2.13;;
52035;SDS011;38046;49.448;32.074;2022-07-30T07:16:52;2.83;;;2.30;;
52035;SDS011;38046;49.448;32.074;2022-07-30T07:19:17;3.00;;;2.80;;
52035;SDS011;38046;49.448;32.074;2022-07-30T07:21:43;2.05;;;1.95;;
52035;SDS011;38046;49.448;32.074;2022-07-30T07:24:08;2.10;;;1.90;;
52035;SDS011;38046;49.448;32.074;2022-07-30T07:26:34;2.28;;;2.08;;
52035;SDS011;38046;49.448;32.074;2022-07-30T07:29:00;2.20;;;2.00;;
52035;SDS011;38046;49.448;32.074;2022-07-30T07:31:26;1.98;;;1.85;;
52035;SDS011;38046;49.448;32.074;2022-07-30T07:33:52;2.45;;;2.25;;
52035;SDS011;38046;49.448;32.074;2022-07-30T07:36:21;2.10;;;1.90;;
52035;SDS011;38046;49.448;32.074;2022-07-30T07:38:47;1.80;;;1.70;;
52035;SDS011;38046;49.448;32.074;2022-07-30T07:41:13;2.05;;;1.40;;
52035;SDS011;38046;49.448;32.074;2022-07-30T07:43:39;2.13;;;1.90;;
52035;SDS011;38046;49.448;32.074;2022-07-30T07:46:05;2.45;;;1.77;;
52035;SDS011;38046;49.448;32.074;2022-07-30T07:48:31;2.42;;;1.90;;
52035;SDS011;38046;49.448;32.074;2022-07-30T07:50:57;2.30;;;2.10;;
52035;SDS011;38046;49.448;32.074;2022-07-30T07:53:24;3.33;;;1.85;;
52035;SDS011;38046;49.448;32.074;2022-07-30T07:55:50;1.70;;;1.60;;
52035;SDS011;38046;49.448;32.074;2022-07-30T07:58:16;3.00;;;1.90;;
52035;SDS011;38046;49.448;32.074;2022-07-30T08:00:42;2.25;;;2.00;;
52035;SDS011;38046;49.448;32.074;2022-07-30T08:03:08;2.33;;;2.00;;
52035;SDS011;38046;49.448;32.074;2022-07-30T08:05:33;2.33;;;1.83;;
52035;SDS011;38046;49.448;32.074;2022-07-30T08:07:59;3.03;;;1.75;;
52035;SDS011;38046;49.448;32.074;2022-07-30T08:10:26;2.00;;;1.80;;
52035;SDS011;38046;49.448;32.074;2022-07-30T08:12:52;2.35;;;1.45;;
52035;SDS011;38046;49.448;32.074;2022-07-30T08:15:18;2.15;;;1.63;;
52035;SDS011;38046;49.448;32.074;2022-07-30T08:17:45;2.05;;;1.80;;
52035;SDS011;38046;49.448;32.074;2022-07-30T08:20:11;1.92;;;1.80;;
52035;SDS011;38046;49.448;32.074;2022-07-30T08:22:38;1.92;;;1.80;;
52035;SDS011;38046;49.448;32.074;2022-07-30T08:25:05;2.00;;;1.83;;
52035;SDS011;38046;49.448;32.074;2022-07-30T08:27:31;1.70;;;1.60;;
52035;SDS011;38046;49.448;32.074;2022-07-30T08:29:57;1.80;;;1.70;;
52035;SDS011;38046;49.448;32.074;2022-07-30T08:32:23;2.00;;;1.67;;
52035;SDS011;38046;49.448;32.074;2022-07-30T08:34:48;1.40;;;1.30;;
52035;SDS011;38046;49.448;32.074;2022-07-30T08:37:14;1.80;;;1.67;;
52035;SDS011;38046;49.448;32.074;2022-07-30T08:39:40;0.90;;;0.90;;
52035;SDS011;38046;49.448;32.074;2022-07-30T08:42:06;1.88;;;1.67;;
52035;SDS011;38046;49.448;32.074;2022-07-30T08:44:31;1.33;;;1.15;;
52035;SDS011;38046;49.448;32.074;2022-07-30T08:46:59;1.38;;;1.27;;
52035;SDS011;38046;49.448;32.074;2022-07-30T08:49:27;1.05;;;1.05;;
52035;SDS011;38046;49.448;32.074;2022-07-30T08:51:53;1.20;;;1.20;;
52035;SDS011;38046;49.448;32.074;2022-07-30T08:54:19;1.63;;;1.48;;
52035;SDS011;38046;49.448;32.074;2022-07-30T08:56:45;1.45;;;1.35;;
52035;SDS011;38046;49.448;32.074;2022-07-30T08:59:13;1.45;;;1.35;;
52035;SDS011;38046;49.448;32.074;2022-07-30T09:01:40;1.02;;;1.02;;
52035;SDS011;38046;49.448;32.074;2022-07-30T09:04:05;1.25;;;1.10;;
52035;SDS011;38046;49.448;32.074;2022-07-30T09:06:31;3.35;;;2.00;;
52035;SDS011;38046;49.448;32.074;2022-07-30T09:08:56;1.83;;;1.70;;
52035;SDS011;38046;49.448;32.074;2022-07-30T09:11:22;1.55;;;1.45;;
52035;SDS011;38046;49.448;32.074;2022-07-30T09:13:48;1.85;;;1.75;;
52035;SDS011;38046;49.448;32.074;2022-07-30T09:21:15;1.30;;;1.20;;
52035;SDS011;38046;49.448;32.074;2022-07-30T09:26:29;1.90;;;1.35;;
52035;SDS011;38046;49.448;32.074;2022-07-30T09:29:15;1.60;;;1.50;;
52035;SDS011;38046;49.448;32.074;2022-07-30T09:31:56;1.30;;;1.30;;
52035;SDS011;38046;49.448;32.074;2022-07-30T09:36:50;1.00;;;1.00;;
52035;SDS011;38046;49.448;32.074;2022-07-30T09:39:26;1.25;;;1.13;;
52035;SDS011;38046;49.448;32.074;2022-07-30T09:41:53;1.30;;;1.30;;
52035;SDS011;38046;49.448;32.074;2022-07-30T09:44:24;1.15;;;1.15;;
52035;SDS011;38046;49.448;32.074;2022-07-30T09:46:51;1.52;;;1.40;;
52035;SDS011;38046;49.448;32.074;2022-07-30T09:49:18;1.70;;;1.60;;
52035;SDS011;38046;49.448;32.074;2022-07-30T09:51:46;1.40;;;1.30;;
52035;SDS011;38046;49.448;32.074;2022-07-30T09:54:12;1.63;;;1.52;;
52035;SDS011;38046;49.448;32.074;2022-07-30T09:56:38;1.50;;;1.40;;
52035;SDS011;38046;49.448;32.074;2022-07-30T09:59:23;1.73;;;1.63;;
52035;SDS011;38046;49.448;32.074;2022-07-30T10:01:54;1.90;;;1.80;;
52035;SDS011;38046;49.448;32.074;2022-07-30T10:04:27;1.70;;;1.60;;
52035;SDS011;38046;49.448;32.074;2022-07-30T10:06:54;1.90;;;1.70;;
52035;SDS011;38046;49.448;32.074;2022-07-30T10:09:24;2.78;;;1.58;;
52035;SDS011;38046;49.448;32.074;2022-07-30T10:11:53;2.03;;;1.65;;
52035;SDS011;38046;49.448;32.074;2022-07-30T10:14:24;2.00;;;1.90;;
52035;SDS011;38046;49.448;32.074;2022-07-30T10:16:59;1.88;;;1.77;;
52035;SDS011;38046;49.448;32.074;2022-07-30T10:19:26;1.98;;;1.88;;
52035;SDS011;38046;49.448;32.074;2022-07-30T10:21:52;1.90;;;1.80;;
52035;SDS011;38046;49.448;32.074;2022-07-30T10:24:21;2.03;;;1.90;;
52035;SDS011;38046;49.448;32.074;2022-07-30T10:26:48;1.70;;;1.60;;
52035;SDS011;38046;49.448;32.074;2022-07-30T10:29:15;1.85;;;1.75;;
52035;SDS011;38046;49.448;32.074;2022-07-30T10:31:45;2.40;;;2.20;;
52035;SDS011;38046;49.448;32.074;2022-07-30T10:34:12;2.05;;;1.85;;
52035;SDS011;38046;49.448;32.074;2022-07-30T10:36:42;2.10;;;1.90;;
52035;SDS011;38046;49.448;32.074;2022-07-30T10:39:26;1.83;;;1.73;;
52035;SDS011;38046;49.448;32.074;2022-07-30T10:47:10;2.13;;;1.88;;
52035;SDS011;38046;49.448;32.074;2022-07-30T10:49:38;3.08;;;2.03;;
52035;SDS011;38046;49.448;32.074;2022-07-30T10:52:04;2.13;;;2.03;;
52035;SDS011;38046;49.448;32.074;2022-07-30T11:02:20;1.75;;;1.63;;
52035;SDS011;38046;49.448;32.074;2022-07-30T11:04:47;3.90;;;2.15;;
52035;SDS011;38046;49.448;32.074;2022-07-30T11:09:49;1.67;;;1.58;;
52035;SDS011;38046;49.448;32.074;2022-07-30T11:15:05;3.70;;;2.17;;
52035;SDS011;38046;49.448;32.074;2022-07-30T11:20:24;1.80;;;1.70;;
52035;SDS011;38046;49.448;32.074;2022-07-30T11:22:50;1.80;;;1.70;;
52035;SDS011;38046;49.448;32.074;2022-07-30T11:27:51;2.42;;;2.15;;
52035;SDS011;38046;49.448;32.074;2022-07-30T11:40:28;2.13;;;1.98;;
52035;SDS011;38046;49.448;32.074;2022-07-30T11:45:39;1.98;;;1.70;;
52035;SDS011;38046;49.448;32.074;2022-07-30T11:48:08;2.20;;;2.00;;
52035;SDS011;38046;49.448;32.074;2022-07-30T11:50:35;2.40;;;2.20;;
52035;SDS011;38046;49.448;32.074;2022-07-30T11:53:06;2.22;;;2.13;;
52035;SDS011;38046;49.448;32.074;2022-07-30T11:58:04;2.47;;;1.90;;
52035;SDS011;38046;49.448;32.074;2022-07-30T12:00:33;2.03;;;1.77;;
52035;SDS011;38046;49.448;32.074;2022-07-30T12:03:08;2.00;;;1.80;;
52035;SDS011;38046;49.448;32.074;2022-07-30T12:05:38;2.00;;;1.90;;
52035;SDS011;38046;49.448;32.074;2022-07-30T12:08:04;2.63;;;1.90;;
52035;SDS011;38046;49.448;32.074;2022-07-30T12:10:30;2.58;;;2.35;;
52035;SDS011;38046;49.448;32.074;2022-07-30T12:13:06;4.63;;;2.50;;
52035;SDS011;38046;49.448;32.074;2022-07-30T12:15:33;3.05;;;2.20;;
52035;SDS011;38046;49.448;32.074;2022-07-30T12:18:00;2.10;;;2.00;;
52035;SDS011;38046;49.448;32.074;2022-07-30T12:20:26;7.38;;;2.42;;
52035;SDS011;38046;49.448;32.074;2022-07-30T12:22:52;2.65;;;2.40;;
52035;SDS011;38046;49.448;32.074;2022-07-30T12:25:19;2.05;;;1.95;;
52035;SDS011;38046;49.448;32.074;2022-07-30T12:27:45;2.00;;;1.90;;
52035;SDS011;38046;49.448;32.074;2022-07-30T12:30:12;2.80;;;2.10;;
52035;SDS011;38046;49.448;32.074;2022-07-30T12:32:39;2.15;;;2.03;;
52035;SDS011;38046;49.448;32.074;2022-07-30T12:35:05;2.45;;;2.25;;
52035;SDS011;38046;49.448;32.074;2022-07-30T12:37:31;2.40;;;2.20;;
52035;SDS011;38046;49.448;32.074;2022-07-30T12:40:07;3.25;;;2.60;;
52035;SDS011;38046;49.448;32.074;2022-07-30T12:42:35;2.25;;;2.08;;
52035;SDS011;38046;49.448;32.074;2022-07-30T12:45:02;2.40;;;2.20;;
52035;SDS011;38046;49.448;32.074;2022-07-30T12:47:30;2.30;;;2.10;;
52035;SDS011;38046;49.448;32.074;2022-07-30T12:49:58;2.30;;;2.10;;
52035;SDS011;38046;49.448;32.074;2022-07-30T12:52:26;2.35;;;2.13;;
52035;SDS011;38046;49.448;32.074;2022-07-30T12:55:03;2.50;;;2.30;;
52035;SDS011;38046;49.448;32.074;2022-07-30T13:00:29;1.83;;;1.73;;
52035;SDS011;38046;49.448;32.074;2022-07-30T13:02:57;2.35;;;2.00;;
52035;SDS011;38046;49.448;32.074;2022-07-30T13:08:08;2.70;;;2.50;;
52035;SDS011;38046;49.448;32.074;2022-07-30T13:10:33;2.50;;;2.30;;
52035;SDS011;38046;49.448;32.074;2022-07-30T13:12:59;2.38;;;2.10;;
52035;SDS011;38046;49.448;32.074;2022-07-30T13:15:26;2.38;;;2.17;;
52035;SDS011;38046;49.448;32.074;2022-07-30T13:17:52;2.67;;;2.47;;
52035;SDS011;38046;49.448;32.074;2022-07-30T13:20:18;2.45;;;2.25;;
52035;SDS011;38046;49.448;32.074;2022-07-30T13:22:44;2.30;;;2.10;;
52035;SDS011;38046;49.448;32.074;2022-07-30T13:25:10;2.35;;;2.15;;
52035;SDS011;38046;49.448;32.074;2022-07-30T13:27:37;2.70;;;2.38;;
52035;SDS011;38046;49.448;32.074;2022-07-30T13:30:03;3.00;;;2.30;;
52035;SDS011;38046;49.448;32.074;2022-07-30T13:32:30;2.50;;;2.30;;
52035;SDS011;38046;49.448;32.074;2022-07-30T13:34:56;2.50;;;2.30;;
52035;SDS011;38046;49.448;32.074;2022-07-30T13:37:21;2.40;;;2.20;;
52035;SDS011;38046;49.448;32.074;2022-07-30T13:39:47;3.83;;;2.65;;
52035;SDS011;38046;49.448;32.074;2022-07-30T13:42:13;3.17;;;2.30;;
52035;SDS011;38046;49.448;32.074;2022-07-30T13:44:39;3.40;;;2.38;;
52035;SDS011;38046;49.448;32.074;2022-07-30T13:47:05;2.22;;;2.13;;
52035;SDS011;38046;49.448;32.074;2022-07-30T13:49:33;2.38;;;2.05;;
52035;SDS011;38046;49.448;32.074;2022-07-30T13:52:01;2.10;;;2.00;;
52035;SDS011;38046;49.448;32.074;2022-07-30T13:54:27;2.95;;;2.00;;
52035;SDS011;38046;49.448;32.074;2022-07-30T13:56:54;2.63;;;2.30;;
52035;SDS011;38046;49.448;32.074;2022-07-30T13:59:20;2.30;;;2.10;;
52035;SDS011;38046;49.448;32.074;2022-07-30T14:01:45;2.08;;;1.98;;
52035;SDS011;38046;49.448;32.074;2022-07-30T14:04:11;2.58;;;2.35;;
52035;SDS011;38046;49.448;32.074;2022-07-30T14:06:37;2.58;;;2.30;;
52035;SDS011;38046;49.448;32.074;2022-07-30T14:09:02;2.90;;;2.60;;
52035;SDS011;38046;49.448;32.074;2022-07-30T14:11:29;2.88;;;2.30;;
52035;SDS011;38046;49.448;32.074;2022-07-30T14:13:55;2.55;;;2.35;;
52035;SDS011;38046;49.448;32.074;2022-07-30T14:16:21;2.70;;;2.50;;
52035;SDS011;38046;49.448;32.074;2022-07-30T14:18:46;2.50;;;2.30;;
52035;SDS011;38046;49.448;32.074;2022-07-30T14:21:12;3.33;;;2.40;;
52035;SDS011;38046;49.448;32.074;2022-07-30T14:23:38;2.50;;;2.30;;
52035;SDS011;38046;49.448;32.074;2022-07-30T14:26:03;4.70;;;2.60;;
52035;SDS011;38046;49.448;32.074;2022-07-30T14:28:29;2.70;;;2.45;;
52035;SDS011;38046;49.448;32.074;2022-07-30T14:30:54;2.78;;;2.50;;
52035;SDS011;38046;49.448;32.074;2022-07-30T14:33:20;2.67;;;2.35;;
52035;SDS011;38046;49.448;32.074;2022-07-30T14:35:46;5.22;;;3.58;;
52035;SDS011;38046;49.448;32.074;2022-07-30T14:38:11;4.93;;;2.95;;
52035;SDS011;38046;49.448;32.074;2022-07-30T14:40:37;4.13;;;2.30;;
52035;SDS011;38046;49.448;32.074;2022-07-30T14:43:03;4.68;;;2.83;;
52035;SDS011;38046;49.448;32.074;2022-07-30T14:45:29;3.75;;;3.20;;
52035;SDS011;38046;49.448;32.074;2022-07-30T14:47:55;4.75;;;2.80;;
52035;SDS011;38046;49.448;32.074;2022-07-30T14:50:21;2.67;;;2.47;;
52035;SDS011;38046;49.448;32.074;2022-07-30T14:52:46;2.70;;;2.50;;
52035;SDS011;38046;49.448;32.074;2022-07-30T15:01:53;2.33;;;2.13;;
52035;SDS011;38046;49.448;32.074;2022-07-30T15:04:20;2.60;;;2.40;;
52035;SDS011;38046;49.448;32.074;2022-07-30T15:06:46;2.53;;;2.33;;
52035;SDS011;38046;49.448;32.074;2022-07-30T15:12:16;2.33;;;2.13;;
52035;SDS011;38046;49.448;32.074;2022-07-30T15:14:41;2.80;;;2.28;;
52035;SDS011;38046;49.448;32.074;2022-07-30T15:17:09;2.80;;;2.30;;
52035;SDS011;38046;49.448;32.074;2022-07-30T15:19:35;2.25;;;2.05;;
52035;SDS011;38046;49.448;32.074;2022-07-30T15:22:01;3.97;;;2.90;;
52035;SDS011;38046;49.448;32.074;2022-07-30T15:24:27;2.70;;;2.50;;
52035;SDS011;38046;49.448;32.074;2022-07-30T15:26:54;3.30;;;2.65;;
52035;SDS011;38046;49.448;32.074;2022-07-30T15:29:20;2.28;;;2.08;;
52035;SDS011;38046;49.448;32.074;2022-07-30T15:31:48;3.53;;;2.50;;
52035;SDS011;38046;49.448;32.074;2022-07-30T15:34:14;1.98;;;1.88;;
52035;SDS011;38046;49.448;32.074;2022-07-30T15:36:40;1.90;;;1.80;;
52035;SDS011;38046;49.448;32.074;2022-07-30T15:39:06;2.33;;;2.10;;
52035;SDS011;38046;49.448;32.074;2022-07-30T15:41:32;2.28;;;2.08;;
52035;SDS011;38046;49.448;32.074;2022-07-30T15:43:58;2.40;;;2.20;;
52035;SDS011;38046;49.448;32.074;2022-07-30T15:46:23;2.70;;;2.10;;
52035;SDS011;38046;49.448;32.074;2022-07-30T15:48:49;2.92;;;2.50;;